createdAt,value
2022-12-17T00:02:42.180Z,-2.70
2022-12-17T00:05:28.034Z,-2.80
2022-12-17T00:08:18.053Z,-2.80
2022-12-17T00:11:04.528Z,-2.80
2022-12-17T00:13:51.335Z,-2.70
2022-12-17T00:16:37.179Z,-2.80
2022-12-17T00:19:22.961Z,-2.80
2022-12-17T00:22:10.545Z,-2.80
2022-12-17T00:24:56.389Z,-2.80
2022-12-17T00:27:42.062Z,-2.80
2022-12-17T00:30:28.164Z,-2.80
2022-12-17T00:33:13.602Z,-2.80
2022-12-17T00:35:59.307Z,-2.80
2022-12-17T00:38:44.840Z,-2.80
2022-12-17T00:41:30.452Z,-2.80
2022-12-17T00:44:17.085Z,-2.80
2022-12-17T00:47:02.563Z,-2.80
2022-12-17T00:49:47.814Z,-2.70
2022-12-17T00:52:33.401Z,-2.80
2022-12-17T00:55:19.169Z,-2.80
2022-12-17T00:58:04.748Z,-2.80
2022-12-17T01:00:51.325Z,-2.80
2022-12-17T01:03:37.518Z,-2.80
2022-12-17T01:06:23.573Z,-2.80
2022-12-17T01:09:08.972Z,-2.80
2022-12-17T01:11:56.609Z,-2.80
2022-12-17T01:14:43.051Z,-2.70
2022-12-17T01:17:28.391Z,-2.80
2022-12-17T01:20:13.881Z,-2.80
2022-12-17T01:22:59.390Z,-2.80
2022-12-17T01:25:45.019Z,-2.80
2022-12-17T01:28:31.480Z,-2.90
2022-12-17T01:31:17.056Z,-2.90
2022-12-17T01:34:02.922Z,-2.90
2022-12-17T01:36:48.370Z,-2.80
2022-12-17T01:39:34.153Z,-2.90
2022-12-17T01:42:19.731Z,-2.80
2022-12-17T01:45:14.536Z,-2.90
2022-12-17T01:48:05.776Z,-2.90
2022-12-17T01:50:56.259Z,-2.90
2022-12-17T01:53:46.355Z,-2.90
2022-12-17T01:56:32.436Z,-3.00
2022-12-17T01:59:20.893Z,-3.00
2022-12-17T02:02:12.586Z,-3.10
2022-12-17T02:07:56.581Z,-3.20
2022-12-17T02:11:08.502Z,-3.20
2022-12-17T02:13:59.958Z,-3.30
2022-12-17T02:17:00.436Z,-3.30
2022-12-17T02:20:10.400Z,-3.30
2022-12-17T02:23:08.367Z,-3.30
2022-12-17T02:26:19.512Z,-3.30
2022-12-17T02:29:08.007Z,-3.30
2022-12-17T02:31:55.276Z,-3.30
2022-12-17T02:34:41.354Z,-3.30
2022-12-17T02:37:27.049Z,-3.40
2022-12-17T02:40:12.928Z,-3.40
2022-12-17T02:43:01.105Z,-3.30
2022-12-17T02:45:46.803Z,-3.30
2022-12-17T02:48:31.975Z,-3.40
2022-12-17T02:51:18.056Z,-3.40
2022-12-17T02:54:04.700Z,-3.40
2022-12-17T02:56:50.130Z,-3.30
2022-12-17T02:59:35.598Z,-3.40
2022-12-17T03:02:21.034Z,-3.30
2022-12-17T03:05:27.990Z,-3.30
2022-12-17T03:08:13.337Z,-3.30
2022-12-17T03:10:58.945Z,-3.30
2022-12-17T03:13:47.003Z,-3.30
2022-12-17T03:16:37.755Z,-3.40
2022-12-17T03:19:23.861Z,-3.40
2022-12-17T03:22:09.403Z,-3.40
2022-12-17T03:24:55.003Z,-3.30
2022-12-17T03:27:40.514Z,-3.30
2022-12-17T03:30:27.565Z,-3.40
2022-12-17T03:33:15.871Z,-3.40
2022-12-17T03:36:01.514Z,-3.40
2022-12-17T03:38:46.844Z,-3.40
2022-12-17T03:41:32.394Z,-3.40
2022-12-17T03:44:17.832Z,-3.40
2022-12-17T03:47:03.505Z,-3.40
2022-12-17T03:49:48.905Z,-3.50
2022-12-17T03:52:34.812Z,-3.50
2022-12-17T03:55:20.210Z,-3.50
2022-12-17T03:58:05.692Z,-3.50
2022-12-17T04:00:51.160Z,-3.50
2022-12-17T04:03:36.660Z,-3.50
2022-12-17T04:06:22.352Z,-3.60
2022-12-17T04:09:07.759Z,-3.60
2022-12-17T04:11:53.235Z,-3.60
2022-12-17T04:14:38.619Z,-3.60
2022-12-17T04:17:24.171Z,-3.60
2022-12-17T04:20:09.925Z,-3.60
2022-12-17T04:22:55.477Z,-3.50
2022-12-17T04:25:41.102Z,-3.60
2022-12-17T04:28:26.534Z,-3.60
2022-12-17T04:31:11.996Z,-3.60
2022-12-17T04:33:57.252Z,-3.60
2022-12-17T04:36:42.701Z,-3.60
2022-12-17T04:39:28.318Z,-3.60
2022-12-17T04:42:13.632Z,-3.60
2022-12-17T04:44:59.108Z,-3.60
2022-12-17T04:47:44.671Z,-3.60
2022-12-17T04:50:31.244Z,-3.60
2022-12-17T04:53:21.414Z,-3.50
2022-12-17T04:56:07.505Z,-3.30
2022-12-17T04:58:53.557Z,-3.50
2022-12-17T05:01:39.785Z,-3.50
2022-12-17T05:04:26.640Z,-3.50
2022-12-17T05:07:12.241Z,-3.50
2022-12-17T05:09:58.168Z,-3.50
2022-12-17T05:12:44.747Z,-3.50
2022-12-17T05:15:30.521Z,-3.60
2022-12-17T05:18:27.622Z,-3.60
2022-12-17T05:21:13.190Z,-3.60
2022-12-17T05:23:58.813Z,-3.60
2022-12-17T05:26:46.270Z,-3.70
2022-12-17T05:29:33.208Z,-3.70
2022-12-17T05:32:18.905Z,-3.70
2022-12-17T05:35:05.303Z,-3.70
2022-12-17T05:37:51.167Z,-3.60
2022-12-17T05:40:36.769Z,-3.70
2022-12-17T05:43:24.947Z,-3.70
2022-12-17T05:46:10.704Z,-3.80
2022-12-17T05:48:56.491Z,-3.80
2022-12-17T05:51:42.056Z,-3.80
2022-12-17T05:54:27.736Z,-3.80
2022-12-17T05:57:13.701Z,-3.80
2022-12-17T05:59:59.797Z,-3.80
2022-12-17T06:02:45.398Z,-3.80
2022-12-17T06:05:31.628Z,-3.80
2022-12-17T06:08:24.711Z,-3.80
2022-12-17T06:11:17.752Z,-3.90
2022-12-17T06:14:03.469Z,-3.90
2022-12-17T06:16:48.901Z,-3.80
2022-12-17T06:19:34.589Z,-3.90
2022-12-17T06:22:21.504Z,-3.80
2022-12-17T06:25:07.257Z,-3.90
2022-12-17T06:27:52.855Z,-3.80
2022-12-17T06:30:38.252Z,-3.80
2022-12-17T06:33:26.393Z,-3.80
2022-12-17T06:36:19.772Z,-3.80
2022-12-17T06:39:07.439Z,-3.80
2022-12-17T06:41:52.933Z,-3.80
2022-12-17T06:44:47.430Z,-3.80
2022-12-17T06:47:33.123Z,-3.80
2022-12-17T06:50:19.618Z,-3.90
2022-12-17T06:53:05.006Z,-4.00
2022-12-17T06:55:50.874Z,-3.90
2022-12-17T06:58:43.613Z,-4.00
2022-12-17T07:01:29.335Z,-4.00
2022-12-17T07:04:15.230Z,-4.00
2022-12-17T07:07:01.599Z,-4.00
2022-12-17T07:09:47.358Z,-4.00
2022-12-17T07:12:32.926Z,-4.10
2022-12-17T07:15:18.807Z,-4.10
2022-12-17T07:18:18.775Z,-4.10
2022-12-17T07:21:04.549Z,-4.10
2022-12-17T07:23:51.075Z,-4.10
2022-12-17T07:26:41.367Z,-4.10
2022-12-17T07:29:26.662Z,-4.10
2022-12-17T07:32:12.068Z,-4.10
2022-12-17T07:34:57.603Z,-4.10
2022-12-17T07:37:42.963Z,-4.10
2022-12-17T07:40:28.844Z,-4.10
2022-12-17T07:43:14.049Z,-4.20
2022-12-17T07:45:59.371Z,-4.20
2022-12-17T07:48:45.047Z,-4.20
2022-12-17T07:51:30.537Z,-4.20
2022-12-17T07:54:15.801Z,-4.20
2022-12-17T07:57:01.037Z,-4.20
2022-12-17T07:59:46.339Z,-4.20
2022-12-17T08:02:31.808Z,-4.30
2022-12-17T08:05:17.804Z,-4.40
2022-12-17T08:08:03.223Z,-4.40
2022-12-17T08:10:48.694Z,-4.50
2022-12-17T08:13:33.946Z,-4.50
2022-12-17T08:16:19.604Z,-4.50
2022-12-17T08:19:04.828Z,-4.50
2022-12-17T08:21:50.339Z,-4.50
2022-12-17T08:24:35.765Z,-4.60
2022-12-17T08:27:21.020Z,-4.60
2022-12-17T08:30:06.434Z,-4.60
2022-12-17T08:32:51.645Z,-4.60
2022-12-17T08:35:38.303Z,-4.70
2022-12-17T08:38:25.061Z,-4.70
2022-12-17T08:41:10.794Z,-4.70
2022-12-17T08:43:56.620Z,-4.80
2022-12-17T08:46:42.204Z,-4.70
2022-12-17T08:49:28.842Z,-4.80
2022-12-17T08:52:14.106Z,-4.80
2022-12-17T08:55:00.771Z,-4.80
2022-12-17T08:57:46.608Z,-4.80
2022-12-17T09:00:32.812Z,-4.80
2022-12-17T09:03:20.000Z,-4.80
2022-12-17T09:06:07.686Z,-4.80
2022-12-17T09:08:52.790Z,-4.80
2022-12-17T09:11:38.137Z,-4.80
2022-12-17T09:14:23.548Z,-4.80
2022-12-17T09:17:09.198Z,-4.80
2022-12-17T09:19:54.773Z,-4.80
2022-12-17T09:22:40.286Z,-4.70
2022-12-17T09:25:26.562Z,-4.70
2022-12-17T09:28:12.149Z,-4.80
2022-12-17T09:30:57.516Z,-4.80
2022-12-17T09:33:42.992Z,-4.80
2022-12-17T09:36:28.384Z,-4.80
2022-12-17T09:39:13.636Z,-4.80
2022-12-17T09:42:01.798Z,-4.80
2022-12-17T09:45:16.603Z,-4.80
2022-12-17T09:48:16.863Z,-4.70
2022-12-17T09:51:03.569Z,-4.70
2022-12-17T09:53:56.094Z,-4.80
2022-12-17T09:56:45.089Z,-4.80
2022-12-17T09:59:40.725Z,-4.70
2022-12-17T10:02:43.145Z,-4.80
2022-12-17T10:05:34.204Z,-4.80
2022-12-17T10:08:22.921Z,-4.80
2022-12-17T10:11:08.393Z,-4.80
2022-12-17T10:13:53.618Z,-4.80
2022-12-17T10:16:58.166Z,-4.80
2022-12-17T10:19:56.489Z,-4.80
2022-12-17T10:22:42.341Z,-4.80
2022-12-17T10:25:38.263Z,-4.80
2022-12-17T10:28:32.675Z,-4.80
2022-12-17T10:31:19.600Z,-4.80
2022-12-17T10:34:05.994Z,-4.70
2022-12-17T10:37:17.864Z,-4.70
2022-12-17T10:40:16.616Z,-4.70
2022-12-17T10:43:03.676Z,-4.70
2022-12-17T10:45:51.967Z,-4.70
2022-12-17T10:48:40.397Z,-4.70
2022-12-17T10:51:51.357Z,-4.70
2022-12-17T10:54:49.643Z,-4.60
2022-12-17T10:57:54.118Z,-4.50
2022-12-17T11:00:50.132Z,-4.50
2022-12-17T11:03:54.832Z,-4.50
2022-12-17T11:06:47.639Z,-4.70
2022-12-17T11:09:42.165Z,-4.60
2022-12-17T11:12:31.043Z,-4.50
2022-12-17T11:15:23.137Z,-4.50
2022-12-17T11:18:11.595Z,-4.50
2022-12-17T11:21:22.935Z,-4.50
2022-12-17T11:24:10.632Z,-4.50
2022-12-17T11:26:58.702Z,-4.50
2022-12-17T11:29:44.088Z,-4.50
2022-12-17T11:33:00.974Z,-4.30
2022-12-17T11:36:07.354Z,-4.40
2022-12-17T11:39:07.338Z,-4.40
2022-12-17T11:41:56.162Z,-4.50
2022-12-17T11:45:13.779Z,-4.50
2022-12-17T11:48:27.454Z,-4.60
2022-12-17T11:51:16.057Z,-4.60
2022-12-17T11:54:22.540Z,-4.60
2022-12-17T11:57:13.532Z,-4.60
2022-12-17T12:00:36.604Z,-4.70
2022-12-17T12:03:31.467Z,-4.70
2022-12-17T12:06:27.273Z,-4.70
2022-12-17T12:09:22.343Z,-4.70
2022-12-17T12:12:32.347Z,-4.80
2022-12-17T12:15:48.473Z,-4.70
2022-12-17T12:19:09.212Z,-4.80
2022-12-17T12:22:30.599Z,-4.80
2022-12-17T12:25:29.831Z,-4.80
2022-12-17T12:28:37.573Z,-4.80
2022-12-17T12:31:33.571Z,-4.80
2022-12-17T12:34:34.735Z,-4.80
2022-12-17T12:37:23.608Z,-4.80
2022-12-17T12:40:29.088Z,-4.80
2022-12-17T12:43:33.335Z,-4.80
2022-12-17T12:46:25.620Z,-4.90
2022-12-17T12:49:36.911Z,-4.90
2022-12-17T12:52:23.298Z,-4.90
2022-12-17T12:55:13.820Z,-4.80
2022-12-17T12:58:22.136Z,-4.80
2022-12-17T13:01:07.518Z,-4.80
2022-12-17T13:04:01.951Z,-4.80
2022-12-17T13:06:54.326Z,-4.80
2022-12-17T13:09:21.186Z,-4.80
2022-12-17T13:12:08.464Z,-4.80
2022-12-17T13:14:56.080Z,-4.80
2022-12-17T13:17:27.431Z,-4.80
2022-12-17T13:19:57.202Z,-4.80
2022-12-17T13:22:24.711Z,-4.70
2022-12-17T13:24:54.794Z,-4.80
2022-12-17T13:27:33.444Z,-4.70
2022-12-17T13:30:41.050Z,-4.70
2022-12-17T13:33:22.549Z,-4.80
2022-12-17T13:36:26.486Z,-4.80
2022-12-17T13:39:22.488Z,-4.80
2022-12-17T13:41:54.699Z,-4.80
2022-12-17T13:44:49.246Z,-4.90
2022-12-17T13:47:22.769Z,-4.90
2022-12-17T13:50:31.791Z,-4.90
2022-12-17T13:52:41.438Z,-4.90
2022-12-17T13:55:13.473Z,-4.90
2022-12-17T13:57:46.839Z,-4.90
2022-12-17T14:00:30.739Z,-4.80
2022-12-17T14:02:57.657Z,-4.90
2022-12-17T14:05:26.860Z,-4.90
2022-12-17T14:07:54.578Z,-4.90
2022-12-17T14:10:22.409Z,-4.90
2022-12-17T14:13:06.358Z,-5.00
2022-12-17T14:15:35.753Z,-5.00
2022-12-17T14:18:04.778Z,-5.00
2022-12-17T14:20:35.957Z,-5.00
2022-12-17T14:23:13.599Z,-5.00
2022-12-17T14:25:43.469Z,-5.00
2022-12-17T14:28:32.507Z,-5.00
2022-12-17T14:31:29.707Z,-5.10
2022-12-17T14:34:08.530Z,-5.20
2022-12-17T14:36:40.004Z,-5.30
2022-12-17T14:39:19.113Z,-5.30
2022-12-17T14:42:04.955Z,-5.30
2022-12-17T14:44:32.401Z,-5.30
2022-12-17T14:47:19.844Z,-5.40
2022-12-17T14:50:17.042Z,-5.40
2022-12-17T14:52:45.935Z,-5.50
2022-12-17T14:55:33.584Z,-5.50
2022-12-17T14:58:12.534Z,-5.60
2022-12-17T15:00:43.023Z,-5.70
2022-12-17T15:03:19.349Z,-5.70
2022-12-17T15:05:55.255Z,-5.80
2022-12-17T15:08:22.588Z,-5.80
2022-12-17T15:10:58.330Z,-5.80
2022-12-17T15:13:25.264Z,-5.70
2022-12-17T15:15:52.114Z,-5.70
2022-12-17T15:18:18.935Z,-5.70
2022-12-17T15:20:45.835Z,-5.70
2022-12-17T15:23:18.540Z,-5.70
2022-12-17T15:25:48.816Z,-5.70
2022-12-17T15:28:17.051Z,-5.70
2022-12-17T15:30:47.627Z,-5.70
2022-12-17T15:33:16.092Z,-5.60
2022-12-17T15:35:43.764Z,-5.70
2022-12-17T15:38:12.009Z,-5.70
2022-12-17T15:40:39.862Z,-5.70
2022-12-17T15:43:11.390Z,-5.70
2022-12-17T15:45:50.136Z,-5.70
2022-12-17T15:48:23.369Z,-5.80
2022-12-17T15:51:02.510Z,-5.80
2022-12-17T15:53:29.488Z,-5.80
2022-12-17T15:56:01.033Z,-5.90
2022-12-17T15:58:28.182Z,-5.90
2022-12-17T16:00:58.752Z,-5.90
2022-12-17T16:03:26.852Z,-5.90
2022-12-17T16:05:53.777Z,-5.90
2022-12-17T16:08:20.653Z,-5.90
2022-12-17T16:10:47.587Z,-5.90
2022-12-17T16:13:15.871Z,-5.90
2022-12-17T16:15:42.726Z,-5.90
2022-12-17T16:18:09.769Z,-5.90
2022-12-17T16:20:37.713Z,-5.90
2022-12-17T16:23:04.631Z,-6.00
2022-12-17T16:25:31.494Z,-5.90
2022-12-17T16:27:58.407Z,-6.00
2022-12-17T16:30:25.219Z,-6.00
2022-12-17T16:32:52.161Z,-6.00
2022-12-17T16:35:18.962Z,-6.00
2022-12-17T16:37:45.742Z,-6.00
2022-12-17T16:40:13.167Z,-6.00
2022-12-17T16:42:39.927Z,-6.00
2022-12-17T16:45:07.860Z,-6.00
2022-12-17T16:47:34.788Z,-6.00
2022-12-17T16:50:01.729Z,-6.00
2022-12-17T16:52:28.737Z,-6.00
2022-12-17T16:54:55.574Z,-6.00
2022-12-17T16:57:23.513Z,-6.00
2022-12-17T16:59:50.795Z,-6.00
2022-12-17T17:02:19.890Z,-6.00
2022-12-17T17:04:48.164Z,-6.00
2022-12-17T17:07:15.552Z,-6.00
2022-12-17T17:09:42.422Z,-6.00
2022-12-17T17:12:09.311Z,-6.00
2022-12-17T17:14:36.157Z,-6.00
2022-12-17T17:17:03.122Z,-6.00
2022-12-17T17:19:29.862Z,-6.00
2022-12-17T17:21:56.704Z,-6.00
2022-12-17T17:24:25.756Z,-6.00
2022-12-17T17:26:54.278Z,-6.00
2022-12-17T17:29:21.526Z,-6.00
2022-12-17T17:34:35.565Z,-6.00
2022-12-17T17:37:02.302Z,-6.00
2022-12-17T17:39:33.233Z,-6.00
2022-12-17T17:42:01.444Z,-6.00
2022-12-17T17:44:28.369Z,-6.00
2022-12-17T17:46:55.363Z,-6.00
2022-12-17T17:49:22.444Z,-6.00
2022-12-17T17:54:37.334Z,-6.00
2022-12-17T17:57:04.423Z,-5.90
2022-12-17T17:59:33.964Z,-5.90
2022-12-17T18:02:03.515Z,-5.80
2022-12-17T18:04:31.357Z,-5.80
2022-12-17T18:09:45.163Z,-5.90
2022-12-17T18:12:30.471Z,-5.80
2022-12-17T18:15:13.583Z,-5.90
2022-12-17T18:17:42.039Z,-5.80
2022-12-17T18:20:09.896Z,-5.80
2022-12-17T18:22:37.317Z,-5.80
2022-12-17T18:25:04.789Z,-5.80
2022-12-17T18:27:31.598Z,-5.80
2022-12-17T18:29:58.407Z,-5.80
2022-12-17T18:32:26.500Z,-5.80
2022-12-17T18:34:53.382Z,-5.80
2022-12-17T18:37:20.270Z,-5.80
2022-12-17T18:39:47.413Z,-5.70
2022-12-17T18:42:32.621Z,-5.70
2022-12-17T18:44:59.373Z,-5.30
2022-12-17T18:47:26.215Z,-5.70
2022-12-17T18:49:53.303Z,-5.70
2022-12-17T18:52:20.093Z,-5.70
2022-12-17T18:54:46.876Z,-5.60
2022-12-17T18:57:13.737Z,-5.60
2022-12-17T18:59:40.967Z,-5.60
2022-12-17T19:02:15.171Z,-5.60
2022-12-17T19:04:42.591Z,-5.50
2022-12-17T19:07:10.142Z,-5.50
2022-12-17T19:09:38.426Z,-5.50
2022-12-17T19:12:06.614Z,-5.50
2022-12-17T19:14:33.988Z,-5.50
2022-12-17T19:17:01.382Z,-5.50
2022-12-17T19:19:35.246Z,-5.50
2022-12-17T19:22:03.415Z,-5.50
2022-12-17T19:24:30.172Z,-5.40
2022-12-17T19:26:57.126Z,-5.40
2022-12-17T19:29:23.999Z,-5.40
2022-12-17T19:31:50.793Z,-5.30
2022-12-17T19:34:19.209Z,-5.30
2022-12-17T19:36:47.079Z,-5.30
2022-12-17T19:39:16.903Z,-5.20
2022-12-17T19:41:43.876Z,-5.20
2022-12-17T19:44:16.071Z,-5.20
2022-12-17T19:46:43.566Z,-5.20
2022-12-17T19:49:17.142Z,-5.10
2022-12-17T19:51:44.751Z,-5.10
2022-12-17T19:54:13.905Z,-5.10
2022-12-17T19:56:41.965Z,-5.10
2022-12-17T19:59:10.310Z,-5.10
2022-12-17T20:01:43.221Z,-5.00
2022-12-17T20:04:12.966Z,-5.00
2022-12-17T20:06:39.837Z,-5.00
2022-12-17T20:09:07.784Z,-4.90
2022-12-17T20:11:35.769Z,-4.90
2022-12-17T20:14:18.042Z,-4.90
2022-12-17T20:16:54.662Z,-4.90
2022-12-17T20:19:27.078Z,-4.90
2022-12-17T20:21:55.012Z,-4.90
2022-12-17T20:24:27.183Z,-4.90
2022-12-17T20:26:57.490Z,-4.90
2022-12-17T20:29:25.835Z,-4.90
2022-12-17T20:31:53.975Z,-4.80
2022-12-17T20:34:22.459Z,-4.80
2022-12-17T20:36:50.427Z,-4.80
2022-12-17T20:39:20.736Z,-4.80
2022-12-17T20:41:51.591Z,-4.80
2022-12-17T20:44:18.754Z,-4.70
2022-12-17T20:46:45.638Z,-4.70
2022-12-17T20:49:13.258Z,-4.70
2022-12-17T20:51:40.384Z,-4.60
2022-12-17T20:54:08.606Z,-4.60
2022-12-17T20:56:36.082Z,-4.60
2022-12-17T20:59:05.987Z,-4.60
2022-12-17T21:01:36.049Z,-4.60
2022-12-17T21:04:04.403Z,-4.60
2022-12-17T21:06:37.338Z,-4.50
2022-12-17T21:09:04.858Z,-4.50
2022-12-17T21:11:33.505Z,-4.50
2022-12-17T21:14:04.090Z,-4.40
2022-12-17T21:16:32.039Z,-4.40
2022-12-17T21:19:00.588Z,-4.40
2022-12-17T21:21:30.054Z,-4.40
2022-12-17T21:23:58.019Z,-4.30
2022-12-17T21:26:24.770Z,-4.30
2022-12-17T21:28:54.643Z,-4.30
2022-12-17T21:31:23.266Z,-4.30
2022-12-17T21:33:52.115Z,-4.30
2022-12-17T21:36:20.927Z,-4.20
2022-12-17T21:38:48.788Z,-4.20
2022-12-17T21:41:18.724Z,-4.20
2022-12-17T21:43:46.065Z,-4.20
2022-12-17T21:46:14.031Z,-4.20
2022-12-17T21:48:42.755Z,-4.10
2022-12-17T21:51:12.751Z,-4.10
2022-12-17T21:53:42.818Z,-4.10
2022-12-17T21:56:10.953Z,-4.10
2022-12-17T21:58:39.391Z,-4.10
2022-12-17T22:01:18.670Z,-4.00
2022-12-17T22:03:48.380Z,-4.00
2022-12-17T22:06:22.755Z,-4.00
2022-12-17T22:08:52.248Z,-3.90
2022-12-17T22:11:25.141Z,-3.90
2022-12-17T22:14:18.836Z,-3.90
2022-12-17T22:16:49.515Z,-3.80
2022-12-17T22:19:23.233Z,-3.80
2022-12-17T22:21:53.788Z,-3.80
2022-12-17T22:24:24.996Z,-3.80
2022-12-17T22:27:00.064Z,-3.80
2022-12-17T22:29:46.752Z,-3.80
2022-12-17T22:32:32.579Z,-3.80
2022-12-17T22:35:57.541Z,-3.80
2022-12-17T22:41:00.075Z,-3.70
2022-12-17T22:44:33.646Z,-3.70
2022-12-17T22:44:36.966Z,-3.60
2022-12-17T22:46:18.251Z,-3.60
2022-12-17T22:48:45.203Z,-3.60
2022-12-17T22:51:14.343Z,-3.60
2022-12-17T22:53:52.177Z,-3.60
2022-12-17T22:56:34.053Z,-3.60
2022-12-17T22:59:07.337Z,-3.60
2022-12-17T23:01:35.239Z,-3.60
2022-12-17T23:04:03.688Z,-3.60
2022-12-17T23:06:30.612Z,-3.50
2022-12-17T23:09:00.727Z,-3.50
2022-12-17T23:11:28.962Z,-3.50
2022-12-17T23:13:56.213Z,-3.50
2022-12-17T23:16:23.680Z,-3.50
2022-12-17T23:18:51.814Z,-3.50
2022-12-17T23:21:27.839Z,-3.50
2022-12-17T23:23:56.385Z,-3.50
2022-12-17T23:26:31.755Z,-3.50
2022-12-17T23:29:01.734Z,-3.50
2022-12-17T23:31:34.512Z,-3.50
2022-12-17T23:34:01.317Z,-3.50
2022-12-17T23:36:28.106Z,-3.50
2022-12-17T23:38:57.777Z,-3.50
2022-12-17T23:41:28.578Z,-3.50
2022-12-17T23:43:57.561Z,-3.50
2022-12-17T23:46:30.322Z,-3.40
2022-12-17T23:48:58.827Z,-3.40
2022-12-17T23:51:28.113Z,-3.40
2022-12-17T23:53:58.627Z,-3.40
2022-12-17T23:56:27.267Z,-3.40
2022-12-17T23:59:01.592Z,-3.40
